sensor_id;sensor_type;location;lat;lon;timestamp;P1;durP1;ratioP1;P2;durP2;ratioP2
10461;SDS011;5278;42.656;23.374;2024-02-15T00:02:02;7.30;;;6.50;;
10461;SDS011;5278;42.656;23.374;2024-02-15T00:04:30;7.60;;;6.27;;
10461;SDS011;5278;42.656;23.374;2024-02-15T00:06:58;8.37;;;6.23;;
10461;SDS011;5278;42.656;23.374;2024-02-15T00:09:25;8.70;;;6.60;;
10461;SDS011;5278;42.656;23.374;2024-02-15T00:11:52;9.77;;;6.40;;
10461;SDS011;5278;42.656;23.374;2024-02-15T00:14:19;7.20;;;6.40;;
10461;SDS011;5278;42.656;23.374;2024-02-15T00:16:45;10.07;;;6.67;;
10461;SDS011;5278;42.656;23.374;2024-02-15T00:19:12;8.10;;;6.70;;
10461;SDS011;5278;42.656;23.374;2024-02-15T00:21:43;8.20;;;6.57;;
10461;SDS011;5278;42.656;23.374;2024-02-15T00:24:10;7.23;;;5.90;;
10461;SDS011;5278;42.656;23.374;2024-02-15T00:26:37;8.33;;;6.10;;
10461;SDS011;5278;42.656;23.374;2024-02-15T00:29:04;7.53;;;6.30;;
10461;SDS011;5278;42.656;23.374;2024-02-15T00:31:30;7.87;;;6.47;;
10461;SDS011;5278;42.656;23.374;2024-02-15T00:33:57;9.97;;;6.83;;
10461;SDS011;5278;42.656;23.374;2024-02-15T00:36:24;7.40;;;6.53;;
10461;SDS011;5278;42.656;23.374;2024-02-15T00:38:52;7.60;;;6.00;;
10461;SDS011;5278;42.656;23.374;2024-02-15T00:41:19;7.60;;;6.73;;
10461;SDS011;5278;42.656;23.374;2024-02-15T00:43:46;8.37;;;6.47;;
10461;SDS011;5278;42.656;23.374;2024-02-15T00:46:13;7.03;;;6.33;;
10461;SDS011;5278;42.656;23.374;2024-02-15T00:48:40;7.07;;;6.07;;
10461;SDS011;5278;42.656;23.374;2024-02-15T00:51:07;12.07;;;6.77;;
10461;SDS011;5278;42.656;23.374;2024-02-15T00:53:34;8.40;;;6.73;;
10461;SDS011;5278;42.656;23.374;2024-02-15T00:56:02;8.63;;;6.50;;
10461;SDS011;5278;42.656;23.374;2024-02-15T00:58:29;6.77;;;6.07;;
10461;SDS011;5278;42.656;23.374;2024-02-15T01:00:56;8.37;;;6.03;;
10461;SDS011;5278;42.656;23.374;2024-02-15T01:03:23;8.23;;;6.67;;
10461;SDS011;5278;42.656;23.374;2024-02-15T01:05:49;6.93;;;6.07;;
10461;SDS011;5278;42.656;23.374;2024-02-15T01:08:17;9.43;;;6.10;;
10461;SDS011;5278;42.656;23.374;2024-02-15T01:10:45;7.07;;;5.80;;
10461;SDS011;5278;42.656;23.374;2024-02-15T01:13:13;9.57;;;6.80;;
10461;SDS011;5278;42.656;23.374;2024-02-15T01:15:40;10.13;;;6.87;;
10461;SDS011;5278;42.656;23.374;2024-02-15T01:18:07;8.90;;;6.50;;
10461;SDS011;5278;42.656;23.374;2024-02-15T01:20:33;7.80;;;5.97;;
10461;SDS011;5278;42.656;23.374;2024-02-15T01:23:01;6.87;;;6.03;;
10461;SDS011;5278;42.656;23.374;2024-02-15T01:25:28;8.87;;;5.73;;
10461;SDS011;5278;42.656;23.374;2024-02-15T01:27:55;9.67;;;6.70;;
10461;SDS011;5278;42.656;23.374;2024-02-15T01:30:23;9.60;;;6.97;;
10461;SDS011;5278;42.656;23.374;2024-02-15T01:32:49;7.70;;;6.73;;
10461;SDS011;5278;42.656;23.374;2024-02-15T01:35:15;10.17;;;6.37;;
10461;SDS011;5278;42.656;23.374;2024-02-15T01:37:42;7.40;;;5.80;;
10461;SDS011;5278;42.656;23.374;2024-02-15T01:40:09;8.00;;;6.50;;
10461;SDS011;5278;42.656;23.374;2024-02-15T01:42:37;7.90;;;6.43;;
10461;SDS011;5278;42.656;23.374;2024-02-15T01:45:05;7.47;;;6.17;;
10461;SDS011;5278;42.656;23.374;2024-02-15T01:47:33;9.60;;;6.63;;
10461;SDS011;5278;42.656;23.374;2024-02-15T01:50:00;10.77;;;6.30;;
10461;SDS011;5278;42.656;23.374;2024-02-15T01:52:27;8.10;;;6.17;;
10461;SDS011;5278;42.656;23.374;2024-02-15T01:54:54;7.37;;;5.70;;
10461;SDS011;5278;42.656;23.374;2024-02-15T01:57:23;7.13;;;5.83;;
10461;SDS011;5278;42.656;23.374;2024-02-15T01:59:50;11.87;;;6.80;;
10461;SDS011;5278;42.656;23.374;2024-02-15T02:02:17;7.87;;;6.23;;
10461;SDS011;5278;42.656;23.374;2024-02-15T02:04:48;7.93;;;6.17;;
10461;SDS011;5278;42.656;23.374;2024-02-15T02:07:14;8.00;;;6.63;;
10461;SDS011;5278;42.656;23.374;2024-02-15T02:09:41;8.13;;;6.60;;
10461;SDS011;5278;42.656;23.374;2024-02-15T02:12:08;9.60;;;6.33;;
10461;SDS011;5278;42.656;23.374;2024-02-15T02:14:35;9.83;;;6.73;;
10461;SDS011;5278;42.656;23.374;2024-02-15T02:17:12;7.53;;;6.57;;
10461;SDS011;5278;42.656;23.374;2024-02-15T02:19:39;7.77;;;6.53;;
10461;SDS011;5278;42.656;23.374;2024-02-15T02:22:08;7.33;;;5.73;;
10461;SDS011;5278;42.656;23.374;2024-02-15T02:24:39;13.40;;;6.90;;
10461;SDS011;5278;42.656;23.374;2024-02-15T02:27:13;7.90;;;6.50;;
10461;SDS011;5278;42.656;23.374;2024-02-15T02:29:42;8.10;;;6.53;;
10461;SDS011;5278;42.656;23.374;2024-02-15T02:32:11;8.90;;;6.70;;
10461;SDS011;5278;42.656;23.374;2024-02-15T02:34:37;8.57;;;6.53;;
10461;SDS011;5278;42.656;23.374;2024-02-15T02:37:06;8.83;;;7.07;;
10461;SDS011;5278;42.656;23.374;2024-02-15T02:39:33;8.77;;;7.10;;
10461;SDS011;5278;42.656;23.374;2024-02-15T02:42:00;8.53;;;6.77;;
10461;SDS011;5278;42.656;23.374;2024-02-15T02:44:28;7.30;;;6.20;;
10461;SDS011;5278;42.656;23.374;2024-02-15T02:46:54;8.93;;;6.83;;
10461;SDS011;5278;42.656;23.374;2024-02-15T02:49:21;8.53;;;6.77;;
10461;SDS011;5278;42.656;23.374;2024-02-15T02:51:48;9.47;;;7.37;;
10461;SDS011;5278;42.656;23.374;2024-02-15T02:54:15;11.23;;;7.97;;
10461;SDS011;5278;42.656;23.374;2024-02-15T02:56:41;10.10;;;7.73;;
10461;SDS011;5278;42.656;23.374;2024-02-15T02:59:10;8.90;;;7.53;;
10461;SDS011;5278;42.656;23.374;2024-02-15T03:01:39;7.77;;;6.57;;
10461;SDS011;5278;42.656;23.374;2024-02-15T03:04:06;9.43;;;6.77;;
10461;SDS011;5278;42.656;23.374;2024-02-15T03:06:33;10.67;;;7.20;;
10461;SDS011;5278;42.656;23.374;2024-02-15T03:09:01;9.03;;;7.23;;
10461;SDS011;5278;42.656;23.374;2024-02-15T03:11:32;12.73;;;7.67;;
10461;SDS011;5278;42.656;23.374;2024-02-15T03:13:59;8.33;;;6.97;;
10461;SDS011;5278;42.656;23.374;2024-02-15T03:16:25;11.90;;;7.40;;
10461;SDS011;5278;42.656;23.374;2024-02-15T03:18:53;9.10;;;7.27;;
10461;SDS011;5278;42.656;23.374;2024-02-15T03:21:20;10.60;;;7.53;;
10461;SDS011;5278;42.656;23.374;2024-02-15T03:23:47;12.03;;;7.60;;
10461;SDS011;5278;42.656;23.374;2024-02-15T03:26:13;11.43;;;7.50;;
10461;SDS011;5278;42.656;23.374;2024-02-15T03:28:40;12.37;;;7.70;;
10461;SDS011;5278;42.656;23.374;2024-02-15T03:31:07;9.13;;;7.40;;
10461;SDS011;5278;42.656;23.374;2024-02-15T03:33:34;10.50;;;8.27;;
10461;SDS011;5278;42.656;23.374;2024-02-15T03:36:04;9.07;;;7.40;;
10461;SDS011;5278;42.656;23.374;2024-02-15T03:38:31;10.17;;;7.57;;
10461;SDS011;5278;42.656;23.374;2024-02-15T03:40:58;12.73;;;8.17;;
10461;SDS011;5278;42.656;23.374;2024-02-15T03:43:24;8.47;;;6.87;;
10461;SDS011;5278;42.656;23.374;2024-02-15T03:45:51;12.50;;;7.83;;
10461;SDS011;5278;42.656;23.374;2024-02-15T03:48:18;8.63;;;7.63;;
10461;SDS011;5278;42.656;23.374;2024-02-15T03:50:45;10.63;;;7.93;;
10461;SDS011;5278;42.656;23.374;2024-02-15T03:53:14;11.90;;;8.70;;
10461;SDS011;5278;42.656;23.374;2024-02-15T03:55:41;11.13;;;8.27;;
10461;SDS011;5278;42.656;23.374;2024-02-15T03:58:08;9.80;;;7.10;;
10461;SDS011;5278;42.656;23.374;2024-02-15T04:00:35;9.53;;;7.47;;
10461;SDS011;5278;42.656;23.374;2024-02-15T04:03:02;12.43;;;8.23;;
10461;SDS011;5278;42.656;23.374;2024-02-15T04:05:30;11.27;;;8.00;;
10461;SDS011;5278;42.656;23.374;2024-02-15T04:07:57;10.00;;;7.80;;
10461;SDS011;5278;42.656;23.374;2024-02-15T04:10:28;9.67;;;7.03;;
10461;SDS011;5278;42.656;23.374;2024-02-15T04:12:55;11.37;;;8.10;;
10461;SDS011;5278;42.656;23.374;2024-02-15T04:15:23;10.20;;;8.17;;
10461;SDS011;5278;42.656;23.374;2024-02-15T04:17:49;9.93;;;7.30;;
10461;SDS011;5278;42.656;23.374;2024-02-15T04:20:21;10.90;;;7.90;;
10461;SDS011;5278;42.656;23.374;2024-02-15T04:22:47;12.00;;;7.83;;
10461;SDS011;5278;42.656;23.374;2024-02-15T04:25:15;11.30;;;7.83;;
10461;SDS011;5278;42.656;23.374;2024-02-15T04:27:44;8.77;;;7.83;;
10461;SDS011;5278;42.656;23.374;2024-02-15T04:30:11;10.47;;;7.27;;
10461;SDS011;5278;42.656;23.374;2024-02-15T04:32:38;9.13;;;7.23;;
10461;SDS011;5278;42.656;23.374;2024-02-15T04:35:05;10.63;;;7.83;;
10461;SDS011;5278;42.656;23.374;2024-02-15T04:37:32;9.73;;;7.27;;
10461;SDS011;5278;42.656;23.374;2024-02-15T04:40:00;10.03;;;8.00;;
10461;SDS011;5278;42.656;23.374;2024-02-15T04:42:33;8.97;;;7.33;;
10461;SDS011;5278;42.656;23.374;2024-02-15T04:45:04;10.20;;;7.97;;
10461;SDS011;5278;42.656;23.374;2024-02-15T04:47:33;11.40;;;6.83;;
10461;SDS011;5278;42.656;23.374;2024-02-15T04:50:00;11.77;;;7.77;;
10461;SDS011;5278;42.656;23.374;2024-02-15T04:52:27;10.57;;;7.00;;
10461;SDS011;5278;42.656;23.374;2024-02-15T04:54:54;13.13;;;7.50;;
10461;SDS011;5278;42.656;23.374;2024-02-15T04:57:23;16.87;;;7.93;;
10461;SDS011;5278;42.656;23.374;2024-02-15T04:59:50;14.67;;;8.70;;
10461;SDS011;5278;42.656;23.374;2024-02-15T05:02:19;9.97;;;7.30;;
10461;SDS011;5278;42.656;23.374;2024-02-15T05:04:47;10.67;;;7.53;;
10461;SDS011;5278;42.656;23.374;2024-02-15T05:07:13;10.30;;;7.83;;
10461;SDS011;5278;42.656;23.374;2024-02-15T05:09:42;10.07;;;7.40;;
10461;SDS011;5278;42.656;23.374;2024-02-15T05:12:09;8.73;;;6.73;;
10461;SDS011;5278;42.656;23.374;2024-02-15T05:14:36;8.53;;;7.03;;
10461;SDS011;5278;42.656;23.374;2024-02-15T05:17:02;11.00;;;7.63;;
10461;SDS011;5278;42.656;23.374;2024-02-15T05:19:30;13.93;;;8.07;;
10461;SDS011;5278;42.656;23.374;2024-02-15T05:21:57;13.50;;;7.97;;
10461;SDS011;5278;42.656;23.374;2024-02-15T05:24:24;9.00;;;6.77;;
10461;SDS011;5278;42.656;23.374;2024-02-15T05:26:51;10.67;;;8.63;;
10461;SDS011;5278;42.656;23.374;2024-02-15T05:29:17;11.70;;;7.77;;
10461;SDS011;5278;42.656;23.374;2024-02-15T05:31:46;11.70;;;7.87;;
10461;SDS011;5278;42.656;23.374;2024-02-15T05:34:15;12.37;;;8.13;;
10461;SDS011;5278;42.656;23.374;2024-02-15T05:36:43;8.97;;;7.33;;
10461;SDS011;5278;42.656;23.374;2024-02-15T05:39:10;11.03;;;7.93;;
10461;SDS011;5278;42.656;23.374;2024-02-15T05:41:39;10.77;;;7.27;;
10461;SDS011;5278;42.656;23.374;2024-02-15T05:44:06;14.80;;;7.67;;
10461;SDS011;5278;42.656;23.374;2024-02-15T05:46:33;13.40;;;8.80;;
10461;SDS011;5278;42.656;23.374;2024-02-15T05:49:02;11.00;;;7.83;;
10461;SDS011;5278;42.656;23.374;2024-02-15T05:51:30;11.50;;;8.00;;
10461;SDS011;5278;42.656;23.374;2024-02-15T05:54:00;10.37;;;7.53;;
10461;SDS011;5278;42.656;23.374;2024-02-15T05:56:27;11.37;;;8.07;;
10461;SDS011;5278;42.656;23.374;2024-02-15T05:58:54;16.60;;;8.13;;
10461;SDS011;5278;42.656;23.374;2024-02-15T06:01:22;11.97;;;7.53;;
10461;SDS011;5278;42.656;23.374;2024-02-15T06:03:49;11.87;;;8.60;;
10461;SDS011;5278;42.656;23.374;2024-02-15T06:06:20;13.80;;;7.67;;
10461;SDS011;5278;42.656;23.374;2024-02-15T06:08:46;11.50;;;7.83;;
10461;SDS011;5278;42.656;23.374;2024-02-15T06:11:18;11.83;;;7.97;;
10461;SDS011;5278;42.656;23.374;2024-02-15T06:13:45;13.10;;;7.63;;
10461;SDS011;5278;42.656;23.374;2024-02-15T06:16:12;11.50;;;7.50;;
10461;SDS011;5278;42.656;23.374;2024-02-15T06:18:38;11.03;;;8.60;;
10461;SDS011;5278;42.656;23.374;2024-02-15T06:21:05;13.03;;;8.90;;
10461;SDS011;5278;42.656;23.374;2024-02-15T06:23:32;11.37;;;8.40;;
10461;SDS011;5278;42.656;23.374;2024-02-15T06:26:00;11.87;;;8.00;;
10461;SDS011;5278;42.656;23.374;2024-02-15T06:28:29;11.90;;;8.23;;
10461;SDS011;5278;42.656;23.374;2024-02-15T06:31:15;14.63;;;7.80;;
10461;SDS011;5278;42.656;23.374;2024-02-15T06:34:00;9.87;;;7.63;;
10461;SDS011;5278;42.656;23.374;2024-02-15T06:36:45;9.77;;;6.97;;
10461;SDS011;5278;42.656;23.374;2024-02-15T06:39:30;11.23;;;7.83;;
10461;SDS011;5278;42.656;23.374;2024-02-15T06:42:07;9.27;;;7.83;;
10461;SDS011;5278;42.656;23.374;2024-02-15T06:44:35;13.87;;;8.10;;
10461;SDS011;5278;42.656;23.374;2024-02-15T06:47:02;12.30;;;8.03;;
10461;SDS011;5278;42.656;23.374;2024-02-15T06:49:29;11.10;;;7.80;;
10461;SDS011;5278;42.656;23.374;2024-02-15T06:51:55;9.53;;;7.20;;
10461;SDS011;5278;42.656;23.374;2024-02-15T06:54:24;13.63;;;8.23;;
10461;SDS011;5278;42.656;23.374;2024-02-15T06:56:51;9.53;;;7.13;;
10461;SDS011;5278;42.656;23.374;2024-02-15T06:59:19;12.57;;;7.23;;
10461;SDS011;5278;42.656;23.374;2024-02-15T07:01:48;11.20;;;7.83;;
10461;SDS011;5278;42.656;23.374;2024-02-15T07:04:17;9.73;;;7.03;;
10461;SDS011;5278;42.656;23.374;2024-02-15T07:06:44;10.70;;;8.00;;
10461;SDS011;5278;42.656;23.374;2024-02-15T07:09:13;13.90;;;8.37;;
10461;SDS011;5278;42.656;23.374;2024-02-15T07:11:43;14.43;;;9.33;;
10461;SDS011;5278;42.656;23.374;2024-02-15T07:14:09;12.27;;;7.70;;
10461;SDS011;5278;42.656;23.374;2024-02-15T07:16:36;9.60;;;7.77;;
10461;SDS011;5278;42.656;23.374;2024-02-15T07:19:04;11.63;;;7.83;;
10461;SDS011;5278;42.656;23.374;2024-02-15T07:21:34;13.47;;;7.70;;
10461;SDS011;5278;42.656;23.374;2024-02-15T07:24:01;10.37;;;7.03;;
10461;SDS011;5278;42.656;23.374;2024-02-15T07:26:29;9.47;;;7.33;;
10461;SDS011;5278;42.656;23.374;2024-02-15T07:28:56;9.40;;;7.43;;
10461;SDS011;5278;42.656;23.374;2024-02-15T07:31:27;13.07;;;7.97;;
10461;SDS011;5278;42.656;23.374;2024-02-15T07:33:54;12.93;;;7.57;;
10461;SDS011;5278;42.656;23.374;2024-02-15T07:36:22;9.27;;;7.77;;
10461;SDS011;5278;42.656;23.374;2024-02-15T07:38:50;9.10;;;7.33;;
10461;SDS011;5278;42.656;23.374;2024-02-15T07:41:20;10.87;;;7.60;;
10461;SDS011;5278;42.656;23.374;2024-02-15T07:43:48;10.00;;;7.90;;
10461;SDS011;5278;42.656;23.374;2024-02-15T07:46:15;12.20;;;7.93;;
10461;SDS011;5278;42.656;23.374;2024-02-15T07:48:42;17.10;;;8.03;;
10461;SDS011;5278;42.656;23.374;2024-02-15T07:51:11;11.87;;;7.43;;
10461;SDS011;5278;42.656;23.374;2024-02-15T07:53:40;9.93;;;6.80;;
10461;SDS011;5278;42.656;23.374;2024-02-15T07:56:08;10.10;;;7.23;;
10461;SDS011;5278;42.656;23.374;2024-02-15T07:58:37;12.57;;;7.93;;
10461;SDS011;5278;42.656;23.374;2024-02-15T08:01:06;7.07;;;6.30;;
10461;SDS011;5278;42.656;23.374;2024-02-15T08:03:33;7.40;;;6.00;;
10461;SDS011;5278;42.656;23.374;2024-02-15T08:06:00;8.67;;;6.23;;
10461;SDS011;5278;42.656;23.374;2024-02-15T08:08:31;10.30;;;7.37;;
10461;SDS011;5278;42.656;23.374;2024-02-15T08:11:01;8.00;;;6.93;;
10461;SDS011;5278;42.656;23.374;2024-02-15T08:13:28;8.47;;;7.53;;
10461;SDS011;5278;42.656;23.374;2024-02-15T08:15:54;10.87;;;6.80;;
10461;SDS011;5278;42.656;23.374;2024-02-15T08:18:21;8.43;;;7.53;;
10461;SDS011;5278;42.656;23.374;2024-02-15T08:20:48;12.63;;;9.43;;
10461;SDS011;5278;42.656;23.374;2024-02-15T08:23:15;10.20;;;7.57;;
10461;SDS011;5278;42.656;23.374;2024-02-15T08:25:42;9.33;;;7.47;;
10461;SDS011;5278;42.656;23.374;2024-02-15T08:28:10;8.33;;;7.37;;
10461;SDS011;5278;42.656;23.374;2024-02-15T08:30:38;9.27;;;7.53;;
10461;SDS011;5278;42.656;23.374;2024-02-15T08:33:05;8.40;;;7.50;;
10461;SDS011;5278;42.656;23.374;2024-02-15T08:35:31;8.70;;;7.37;;
10461;SDS011;5278;42.656;23.374;2024-02-15T08:37:58;10.23;;;7.83;;
10461;SDS011;5278;42.656;23.374;2024-02-15T08:40:25;10.23;;;8.53;;
10461;SDS011;5278;42.656;23.374;2024-02-15T08:42:52;8.03;;;6.47;;
10461;SDS011;5278;42.656;23.374;2024-02-15T08:45:22;9.20;;;7.80;;
10461;SDS011;5278;42.656;23.374;2024-02-15T08:47:48;7.47;;;6.73;;
10461;SDS011;5278;42.656;23.374;2024-02-15T08:50:18;10.53;;;7.60;;
10461;SDS011;5278;42.656;23.374;2024-02-15T08:52:47;9.10;;;7.30;;
10461;SDS011;5278;42.656;23.374;2024-02-15T08:55:14;8.77;;;6.63;;
10461;SDS011;5278;42.656;23.374;2024-02-15T08:57:42;7.90;;;6.50;;
10461;SDS011;5278;42.656;23.374;2024-02-15T09:00:09;8.30;;;7.07;;
10461;SDS011;5278;42.656;23.374;2024-02-15T09:02:41;8.07;;;7.00;;
10461;SDS011;5278;42.656;23.374;2024-02-15T09:05:07;9.33;;;6.93;;
10461;SDS011;5278;42.656;23.374;2024-02-15T09:07:34;7.90;;;6.33;;
10461;SDS011;5278;42.656;23.374;2024-02-15T09:10:02;7.60;;;6.90;;
10461;SDS011;5278;42.656;23.374;2024-02-15T09:12:29;9.13;;;7.20;;
10461;SDS011;5278;42.656;23.374;2024-02-15T09:14:56;7.70;;;6.97;;
10461;SDS011;5278;42.656;23.374;2024-02-15T09:17:23;10.80;;;6.73;;
10461;SDS011;5278;42.656;23.374;2024-02-15T09:19:52;8.27;;;7.47;;
10461;SDS011;5278;42.656;23.374;2024-02-15T09:22:19;15.47;;;7.50;;
10461;SDS011;5278;42.656;23.374;2024-02-15T09:24:46;8.53;;;7.63;;
10461;SDS011;5278;42.656;23.374;2024-02-15T09:27:13;7.63;;;6.93;;
10461;SDS011;5278;42.656;23.374;2024-02-15T09:29:39;10.50;;;7.33;;
10461;SDS011;5278;42.656;23.374;2024-02-15T09:32:07;8.43;;;6.27;;
10461;SDS011;5278;42.656;23.374;2024-02-15T09:34:34;8.67;;;7.80;;
10461;SDS011;5278;42.656;23.374;2024-02-15T09:37:02;9.77;;;7.40;;
10461;SDS011;5278;42.656;23.374;2024-02-15T09:39:30;9.47;;;8.13;;
10461;SDS011;5278;42.656;23.374;2024-02-15T09:41:57;8.23;;;7.43;;
10461;SDS011;5278;42.656;23.374;2024-02-15T09:44:24;7.80;;;7.00;;
10461;SDS011;5278;42.656;23.374;2024-02-15T09:46:55;8.93;;;6.10;;
10461;SDS011;5278;42.656;23.374;2024-02-15T09:49:29;8.60;;;7.20;;
10461;SDS011;5278;42.656;23.374;2024-02-15T09:52:00;9.70;;;7.00;;
10461;SDS011;5278;42.656;23.374;2024-02-15T09:54:32;8.17;;;6.37;;
10461;SDS011;5278;42.656;23.374;2024-02-15T09:57:01;10.83;;;6.50;;
10461;SDS011;5278;42.656;23.374;2024-02-15T09:59:29;8.23;;;7.03;;
10461;SDS011;5278;42.656;23.374;2024-02-15T10:01:58;6.80;;;6.10;;
10461;SDS011;5278;42.656;23.374;2024-02-15T10:04:25;9.43;;;5.77;;
10461;SDS011;5278;42.656;23.374;2024-02-15T10:06:52;9.27;;;6.20;;
10461;SDS011;5278;42.656;23.374;2024-02-15T10:09:29;7.67;;;6.23;;
10461;SDS011;5278;42.656;23.374;2024-02-15T10:11:57;7.83;;;5.67;;
10461;SDS011;5278;42.656;23.374;2024-02-15T10:14:24;8.30;;;6.27;;
10461;SDS011;5278;42.656;23.374;2024-02-15T10:16:52;6.70;;;5.67;;
10461;SDS011;5278;42.656;23.374;2024-02-15T10:19:20;7.97;;;7.23;;
10461;SDS011;5278;42.656;23.374;2024-02-15T10:21:51;6.90;;;6.27;;
10461;SDS011;5278;42.656;23.374;2024-02-15T10:24:20;7.67;;;6.70;;
10461;SDS011;5278;42.656;23.374;2024-02-15T10:26:49;9.03;;;6.37;;
10461;SDS011;5278;42.656;23.374;2024-02-15T10:29:17;6.77;;;6.10;;
10461;SDS011;5278;42.656;23.374;2024-02-15T10:31:52;10.80;;;6.57;;
10461;SDS011;5278;42.656;23.374;2024-02-15T10:34:19;7.13;;;6.27;;
10461;SDS011;5278;42.656;23.374;2024-02-15T10:36:46;8.40;;;5.80;;
10461;SDS011;5278;42.656;23.374;2024-02-15T10:39:13;7.03;;;5.60;;
10461;SDS011;5278;42.656;23.374;2024-02-15T10:41:44;8.30;;;5.80;;
10461;SDS011;5278;42.656;23.374;2024-02-15T10:44:17;7.63;;;6.10;;
10461;SDS011;5278;42.656;23.374;2024-02-15T10:46:45;7.63;;;5.97;;
10461;SDS011;5278;42.656;23.374;2024-02-15T10:49:19;7.20;;;5.73;;
10461;SDS011;5278;42.656;23.374;2024-02-15T10:51:48;6.47;;;5.87;;
10461;SDS011;5278;42.656;23.374;2024-02-15T10:54:20;6.53;;;5.80;;
10461;SDS011;5278;42.656;23.374;2024-02-15T10:57:06;6.60;;;5.90;;
10461;SDS011;5278;42.656;23.374;2024-02-15T10:59:37;6.33;;;5.73;;
10461;SDS011;5278;42.656;23.374;2024-02-15T11:02:20;7.90;;;6.73;;
10461;SDS011;5278;42.656;23.374;2024-02-15T11:04:53;8.93;;;6.67;;
10461;SDS011;5278;42.656;23.374;2024-02-15T11:07:23;9.87;;;7.00;;
10461;SDS011;5278;42.656;23.374;2024-02-15T11:09:52;10.00;;;6.50;;
10461;SDS011;5278;42.656;23.374;2024-02-15T11:12:21;6.13;;;5.53;;
10461;SDS011;5278;42.656;23.374;2024-02-15T11:14:51;10.30;;;5.73;;
10461;SDS011;5278;42.656;23.374;2024-02-15T11:23:11;6.77;;;5.67;;
10461;SDS011;5278;42.656;23.374;2024-02-15T11:25:38;8.20;;;5.90;;
10461;SDS011;5278;42.656;23.374;2024-02-15T11:31:03;7.90;;;6.50;;
10461;SDS011;5278;42.656;23.374;2024-02-15T11:33:30;7.37;;;6.20;;
10461;SDS011;5278;42.656;23.374;2024-02-15T11:36:04;8.80;;;5.43;;
10461;SDS011;5278;42.656;23.374;2024-02-15T11:38:32;7.73;;;5.60;;
10461;SDS011;5278;42.656;23.374;2024-02-15T11:40:59;7.00;;;5.80;;
10461;SDS011;5278;42.656;23.374;2024-02-15T11:46:22;7.93;;;5.40;;
10461;SDS011;5278;42.656;23.374;2024-02-15T11:48:51;5.77;;;5.17;;
10461;SDS011;5278;42.656;23.374;2024-02-15T11:51:26;6.00;;;5.40;;
10461;SDS011;5278;42.656;23.374;2024-02-15T11:54:00;6.73;;;5.30;;
10461;SDS011;5278;42.656;23.374;2024-02-15T11:56:31;7.67;;;6.23;;
10461;SDS011;5278;42.656;23.374;2024-02-15T11:59:02;6.93;;;5.63;;
10461;SDS011;5278;42.656;23.374;2024-02-15T12:01:33;8.63;;;5.30;;
10461;SDS011;5278;42.656;23.374;2024-02-15T12:04:18;5.60;;;5.00;;
10461;SDS011;5278;42.656;23.374;2024-02-15T12:07:02;6.33;;;5.73;;
10461;SDS011;5278;42.656;23.374;2024-02-15T12:09:47;7.10;;;5.40;;
10461;SDS011;5278;42.656;23.374;2024-02-15T12:12:31;6.80;;;5.33;;
10461;SDS011;5278;42.656;23.374;2024-02-15T12:15:15;6.20;;;5.30;;
10461;SDS011;5278;42.656;23.374;2024-02-15T12:18:14;7.70;;;5.10;;
10461;SDS011;5278;42.656;23.374;2024-02-15T12:20:58;7.70;;;6.10;;
10461;SDS011;5278;42.656;23.374;2024-02-15T12:23:27;7.23;;;5.43;;
10461;SDS011;5278;42.656;23.374;2024-02-15T12:25:55;11.93;;;5.70;;
10461;SDS011;5278;42.656;23.374;2024-02-15T12:28:23;6.93;;;5.53;;
10461;SDS011;5278;42.656;23.374;2024-02-15T12:30:54;6.30;;;5.43;;
10461;SDS011;5278;42.656;23.374;2024-02-15T12:33:23;7.80;;;5.33;;
10461;SDS011;5278;42.656;23.374;2024-02-15T12:36:02;6.30;;;5.57;;
10461;SDS011;5278;42.656;23.374;2024-02-15T12:38:30;5.40;;;4.90;;
10461;SDS011;5278;42.656;23.374;2024-02-15T12:40:59;7.67;;;4.97;;
10461;SDS011;5278;42.656;23.374;2024-02-15T12:43:27;9.37;;;6.23;;
10461;SDS011;5278;42.656;23.374;2024-02-15T12:45:53;6.47;;;5.87;;
10461;SDS011;5278;42.656;23.374;2024-02-15T12:48:22;7.50;;;5.57;;
10461;SDS011;5278;42.656;23.374;2024-02-15T12:50:50;9.47;;;5.17;;
10461;SDS011;5278;42.656;23.374;2024-02-15T12:53:20;6.07;;;5.03;;
10461;SDS011;5278;42.656;23.374;2024-02-15T12:55:52;6.07;;;5.07;;
10461;SDS011;5278;42.656;23.374;2024-02-15T12:58:20;5.47;;;4.97;;
10461;SDS011;5278;42.656;23.374;2024-02-15T13:00:49;5.90;;;5.30;;
10461;SDS011;5278;42.656;23.374;2024-02-15T13:03:16;5.40;;;4.90;;
10461;SDS011;5278;42.656;23.374;2024-02-15T13:05:44;5.87;;;4.60;;
10461;SDS011;5278;42.656;23.374;2024-02-15T13:08:13;7.00;;;6.30;;
10461;SDS011;5278;42.656;23.374;2024-02-15T13:10:43;7.73;;;5.07;;
10461;SDS011;5278;42.656;23.374;2024-02-15T13:13:10;5.07;;;4.57;;
10461;SDS011;5278;42.656;23.374;2024-02-15T13:15:36;7.07;;;5.57;;
10461;SDS011;5278;42.656;23.374;2024-02-15T13:18:04;7.63;;;4.90;;
10461;SDS011;5278;42.656;23.374;2024-02-15T13:20:30;7.20;;;4.93;;
10461;SDS011;5278;42.656;23.374;2024-02-15T13:23:01;6.73;;;4.90;;
10461;SDS011;5278;42.656;23.374;2024-02-15T13:25:33;5.23;;;4.73;;
10461;SDS011;5278;42.656;23.374;2024-02-15T13:28:01;6.10;;;5.00;;
10461;SDS011;5278;42.656;23.374;2024-02-15T13:30:29;5.67;;;5.07;;
10461;SDS011;5278;42.656;23.374;2024-02-15T13:32:56;6.43;;;5.63;;
10461;SDS011;5278;42.656;23.374;2024-02-15T13:35:23;7.20;;;5.23;;
10461;SDS011;5278;42.656;23.374;2024-02-15T13:37:50;8.80;;;5.23;;
10461;SDS011;5278;42.656;23.374;2024-02-15T13:40:20;10.83;;;5.07;;
10461;SDS011;5278;42.656;23.374;2024-02-15T13:42:49;5.73;;;5.10;;
10461;SDS011;5278;42.656;23.374;2024-02-15T13:45:19;6.50;;;5.07;;
10461;SDS011;5278;42.656;23.374;2024-02-15T13:47:47;7.53;;;5.30;;
10461;SDS011;5278;42.656;23.374;2024-02-15T13:50:15;5.67;;;4.63;;
10461;SDS011;5278;42.656;23.374;2024-02-15T13:52:42;8.30;;;4.70;;
10461;SDS011;5278;42.656;23.374;2024-02-15T13:55:13;8.73;;;5.10;;
10461;SDS011;5278;42.656;23.374;2024-02-15T13:57:43;5.60;;;4.23;;
10461;SDS011;5278;42.656;23.374;2024-02-15T14:00:12;4.73;;;4.30;;
10461;SDS011;5278;42.656;23.374;2024-02-15T14:02:46;9.10;;;6.90;;
10461;SDS011;5278;42.656;23.374;2024-02-15T14:05:14;5.50;;;5.00;;
10461;SDS011;5278;42.656;23.374;2024-02-15T14:07:45;10.40;;;4.80;;
10461;SDS011;5278;42.656;23.374;2024-02-15T14:10:12;7.30;;;4.70;;
10461;SDS011;5278;42.656;23.374;2024-02-15T14:12:39;5.30;;;4.77;;
10461;SDS011;5278;42.656;23.374;2024-02-15T14:15:07;5.73;;;4.50;;
10461;SDS011;5278;42.656;23.374;2024-02-15T14:17:35;6.50;;;4.90;;
10461;SDS011;5278;42.656;23.374;2024-02-15T14:20:01;7.13;;;4.33;;
10461;SDS011;5278;42.656;23.374;2024-02-15T14:22:33;6.57;;;4.67;;
10461;SDS011;5278;42.656;23.374;2024-02-15T14:25:00;7.47;;;5.37;;
10461;SDS011;5278;42.656;23.374;2024-02-15T14:27:29;6.90;;;5.73;;
10461;SDS011;5278;42.656;23.374;2024-02-15T14:29:56;5.93;;;4.97;;
10461;SDS011;5278;42.656;23.374;2024-02-15T14:32:41;5.90;;;4.60;;
10461;SDS011;5278;42.656;23.374;2024-02-15T14:35:28;5.87;;;4.63;;
10461;SDS011;5278;42.656;23.374;2024-02-15T14:37:56;7.37;;;4.53;;
10461;SDS011;5278;42.656;23.374;2024-02-15T14:40:24;5.07;;;4.57;;
10461;SDS011;5278;42.656;23.374;2024-02-15T14:42:51;6.07;;;5.20;;
10461;SDS011;5278;42.656;23.374;2024-02-15T14:45:18;5.87;;;5.00;;
10461;SDS011;5278;42.656;23.374;2024-02-15T14:47:46;6.67;;;4.60;;
10461;SDS011;5278;42.656;23.374;2024-02-15T14:50:13;10.73;;;5.07;;
10461;SDS011;5278;42.656;23.374;2024-02-15T14:52:40;5.43;;;4.30;;
10461;SDS011;5278;42.656;23.374;2024-02-15T14:55:07;5.33;;;4.83;;
10461;SDS011;5278;42.656;23.374;2024-02-15T14:57:34;7.27;;;4.60;;
10461;SDS011;5278;42.656;23.374;2024-02-15T15:00:03;6.70;;;5.47;;
10461;SDS011;5278;42.656;23.374;2024-02-15T15:02:34;7.17;;;5.10;;
10461;SDS011;5278;42.656;23.374;2024-02-15T15:05:03;7.23;;;5.13;;